地図

経路データ

SID SEASON NUMBER BASIN SUBBASIN NAME ISO_TIME NATURE LAT LON WMO_WIND WMO_PRES WMO_AGENCY TRACK_TYPE DIST2LAND LANDFALL IFLAG USA_AGENCY USA_ATCF_ID USA_LAT USA_LON USA_RECORD USA_STATUS USA_WIND USA_PRES USA_SSHS USA_R34_NE USA_R34_SE USA_R34_SW USA_R34_NW USA_R50_NE USA_R50_SE USA_R50_SW USA_R50_NW USA_R64_NE USA_R64_SE USA_R64_SW USA_R64_NW USA_POCI USA_ROCI USA_RMW USA_EYE TOKYO_LAT TOKYO_LON TOKYO_GRADE TOKYO_WIND TOKYO_PRES TOKYO_R50_DIR TOKYO_R50_LONG TOKYO_R50_SHORT TOKYO_R30_DIR TOKYO_R30_LONG TOKYO_R30_SHORT TOKYO_LAND CMA_LAT CMA_LON CMA_CAT CMA_WIND CMA_PRES HKO_LAT HKO_LON HKO_CAT HKO_WIND HKO_PRES NEWDELHI_LAT NEWDELHI_LON NEWDELHI_GRADE NEWDELHI_WIND NEWDELHI_PRES NEWDELHI_CI NEWDELHI_DP NEWDELHI_POCI REUNION_LAT REUNION_LON REUNION_TYPE REUNION_WIND REUNION_PRES REUNION_TNUM REUNION_CI REUNION_RMW REUNION_R34_NE REUNION_R34_SE REUNION_R34_SW REUNION_R34_NW REUNION_R50_NE REUNION_R50_SE REUNION_R50_SW REUNION_R50_NW REUNION_R64_NE REUNION_R64_SE REUNION_R64_SW REUNION_R64_NW BOM_LAT BOM_LON BOM_TYPE BOM_WIND BOM_PRES BOM_TNUM BOM_CI BOM_RMW BOM_R34_NE BOM_R34_SE BOM_R34_SW BOM_R34_NW BOM_R50_NE BOM_R50_SE BOM_R50_SW BOM_R50_NW BOM_R64_NE BOM_R64_SE BOM_R64_SW BOM_R64_NW BOM_ROCI BOM_POCI BOM_EYE BOM_POS_METHOD BOM_PRES_METHOD NADI_LAT NADI_LON NADI_CAT NADI_WIND NADI_PRES WELLINGTON_LAT WELLINGTON_LON WELLINGTON_WIND WELLINGTON_PRES DS824_LAT DS824_LON DS824_STAGE DS824_WIND DS824_PRES TD9636_LAT TD9636_LON TD9636_STAGE TD9636_WIND TD9636_PRES TD9635_LAT TD9635_LON TD9635_WIND TD9635_PRES TD9635_ROCI NEUMANN_LAT NEUMANN_LON NEUMANN_CLASS NEUMANN_WIND NEUMANN_PRES MLC_LAT MLC_LON MLC_CLASS MLC_WIND MLC_PRES USA_GUST BOM_GUST BOM_GUST_PER REUNION_GUST REUNION_GUST_PER USA_SEAHGT USA_SEARAD_NE USA_SEARAD_SE USA_SEARAD_SW USA_SEARAD_NW STORM_SPEED STORM_DIR
1920263N30283 1920 40 NA NA NOT_NAMED 1920-09-19 06:00:00 TS 30.4000 -76.8000 25 hurdat_atl main 379 379 O_____________ hurdat_atl AL031920 30.4000 -76.8000 TD 25 -1 3 69
1920263N30283 1920 40 NA NA NOT_NAMED 1920-09-19 09:00:00 TS 30.4500 -76.6500 main 377 377 P_____________ AL031920 30.4500 -76.6500 TD 27 -1 3 69
1920263N30283 1920 40 NA NA NOT_NAMED 1920-09-19 12:00:00 TS 30.5000 -76.5000 30 hurdat_atl main 390 390 O_____________ hurdat_atl AL031920 30.5000 -76.5000 TD 30 -1 3 69
1920263N30283 1920 40 NA NA NOT_NAMED 1920-09-19 15:00:00 TS 30.5500 -76.3500 main 404 396 P_____________ AL031920 30.5500 -76.3500 TD 30 -1 3 69
1920263N30283 1920 40 NA NA NOT_NAMED 1920-09-19 18:00:00 TS 30.6000 -76.2000 30 hurdat_atl main 403 403 O_____________ hurdat_atl AL031920 30.6000 -76.2000 TD 30 -1 3 69
1920263N30283 1920 40 NA NA NOT_NAMED 1920-09-19 21:00:00 TS 30.6500 -76.0425 main 403 403 P_____________ AL031920 30.6500 -76.0425 TD 30 -1 3 69
1920263N30283 1920 40 NA NA NOT_NAMED 1920-09-20 00:00:00 TS 30.7000 -75.9000 30 hurdat_atl main 407 402 O_____________ hurdat_atl AL031920 30.7000 -75.9000 TD 30 -1 2 62
1920263N30283 1920 40 NA NA NOT_NAMED 1920-09-20 03:00:00 TS 30.7650 -75.7925 main 402 402 P_____________ AL031920 30.7650 -75.7925 TD 30 -1 2 60
1920263N30283 1920 40 NA NA NOT_NAMED 1920-09-20 06:00:00 TS 30.8000 -75.7000 30 hurdat_atl main 407 407 O_____________ hurdat_atl AL031920 30.8000 -75.7000 TD 30 -1 2 87
1920263N30283 1920 40 NA NA NOT_NAMED 1920-09-20 09:00:00 TS 30.7725 -75.5925 main 412 412 P_____________ AL031920 30.7725 -75.5925 TD 32 -1 2 120
1920263N30283 1920 40 NA NA NOT_NAMED 1920-09-20 12:00:00 TS 30.7000 -75.5000 35 hurdat_atl main 427 427 O_____________ hurdat_atl AL031920 30.7000 -75.5000 TS 35 0 2 137
1920263N30283 1920 40 NA NA NOT_NAMED 1920-09-20 15:00:00 TS 30.6300 -75.4425 main 441 441 P_____________ AL031920 30.6300 -75.4425 TS 35 0 2 155
1920263N30283 1920 40 NA NA NOT_NAMED 1920-09-20 18:00:00 TS 30.5000 -75.4000 35 hurdat_atl main 451 451 O_____________ hurdat_atl AL031920 30.5000 -75.4000 TS 35 0 4 167
1920263N30283 1920 40 NA NA NOT_NAMED 1920-09-20 21:00:00 TS 30.2650 -75.3349 main 475 475 P_____________ AL031920 30.2650 -75.3349 TS 35 0 5 170
1920263N30283 1920 40 NA NA NOT_NAMED 1920-09-21 00:00:00 TS 30.0000 -75.3000 35 hurdat_atl main 503 503 O_____________ hurdat_atl AL031920 30.0000 -75.3000 TS 35 0 5 183
1920263N30283 1920 40 NA NA NOT_NAMED 1920-09-21 03:00:00 TS 29.7700 -75.3351 main 523 510 P_____________ AL031920 29.7700 -75.3351 TS 37 0 4 192
1920263N30283 1920 40 NA NA NOT_NAMED 1920-09-21 06:00:00 TS 29.6000 -75.4000 40 hurdat_atl main 510 507 O_____________ hurdat_atl AL031920 29.6000 -75.4000 TS 40 0 3 200
1920263N30283 1920 40 NA NA NOT_NAMED 1920-09-21 09:00:00 TS 29.5125 -75.4425 main 507 498 P_____________ AL031920 29.5125 -75.4425 TS 42 0 1 220
1920263N30283 1920 40 NA NA NOT_NAMED 1920-09-21 12:00:00 TS 29.5000 -75.5000 45 hurdat_atl main 498 488 O_____________ hurdat_atl AL031920 29.5000 -75.5000 TS 45 0 1 273
1920263N30283 1920 40 NA NA NOT_NAMED 1920-09-21 15:00:00 TS 29.5200 -75.5925 main 488 481 P_____________ AL031920 29.5200 -75.5925 TS 47 0 2 300
1920263N30283 1920 40 NA NA NOT_NAMED 1920-09-21 18:00:00 TS 29.6000 -75.7000 50 hurdat_atl main 481 475 O_____________ hurdat_atl AL031920 29.6000 -75.7000 TS 50 0 3 318
1920263N30283 1920 40 NA NA NOT_NAMED 1920-09-21 21:00:00 TS 29.7200 -75.8000 main 475 469 P_____________ AL031920 29.7200 -75.8000 TS 52 0 3 330
1920263N30283 1920 40 NA NA NOT_NAMED 1920-09-22 00:00:00 TS 29.9000 -75.9000 55 hurdat_atl main 472 456 O_____________ hurdat_atl AL031920 29.9000 -75.9000 TS 55 0 4 338
1920263N30283 1920 40 NA NA NOT_NAMED 1920-09-22 03:00:00 TS 30.1275 -75.9926 main 456 425 P_____________ AL031920 30.1275 -75.9926 TS 57 0 5 341
1920263N30283 1920 40 NA NA NOT_NAMED 1920-09-22 06:00:00 TS 30.4000 -76.1000 60 hurdat_atl main 425 394 O_____________ hurdat_atl AL031920 30.4000 -76.1000 TS 60 0 6 340
1920263N30283 1920 40 NA NA NOT_NAMED 1920-09-22 09:00:00 TS 30.6774 -76.2277 main 394 356 P_____________ AL031920 30.6774 -76.2277 TS 65 1 7 337
1920263N30283 1920 40 NA NA NOT_NAMED 1920-09-22 12:00:00 TS 31.0000 -76.4000 70 hurdat_atl main 356 307 O_____________ hurdat_atl AL031920 31.0000 -76.4000 HU 70 1 8 334
1920263N30283 1920 40 NA NA NOT_NAMED 1920-09-22 15:00:00 TS 31.3775 -76.6276 main 307 255 P_____________ AL031920 31.3775 -76.6276 HU 72 1 9 332
1920263N30283 1920 40 NA NA NOT_NAMED 1920-09-22 18:00:00 TS 31.8000 -76.9000 75 hurdat_atl main 255 203 O_____________ hurdat_atl AL031920 31.8000 -76.9000 HU 75 1 10 331
1920263N30283 1920 40 NA NA NOT_NAMED 1920-09-22 21:00:00 TS 32.2349 -77.1853 main 203 141 P_____________ AL031920 32.2349 -77.1853 HU 70 1 10 331
1920263N30283 1920 40 NA NA NOT_NAMED 1920-09-23 00:00:00 TS 32.7000 -77.5000 65 hurdat_atl main 141 80 O_____________ hurdat_atl AL031920 32.7000 -77.5000 HU 65 1 11 330
1920263N30283 1920 40 NA NA NOT_NAMED 1920-09-23 03:00:00 TS 33.1849 -77.8354 main 80 22 P_____________ AL031920 33.1849 -77.8354 HU 60 0 12 330
1920263N30283 1920 40 NA NA NOT_NAMED 1920-09-23 06:00:00 TS 33.7000 -78.2000 55 hurdat_atl main 22 0 O_____________ hurdat_atl AL031920 33.7000 -78.2000 L TS 55 0 12 329
1920263N30283 1920 40 NA NA NOT_NAMED 1920-09-23 09:00:00 TS 34.2424 -78.5854 main 0 0 P_____________ AL031920 34.2424 -78.5854 TS 45 0 13 329
1920263N30283 1920 40 NA NA NOT_NAMED 1920-09-23 12:00:00 TS 34.8000 -79.0000 35 hurdat_atl main 0 0 O_____________ hurdat_atl AL031920 34.8000 -79.0000 TS 35 0 13 328
1920263N30283 1920 40 NA NA NOT_NAMED 1920-09-23 15:00:00 TS 35.3497 -79.4283 main 0 0 P_____________ AL031920 35.3497 -79.4283 TS 32 -1 13 326
1920263N30283 1920 40 NA NA NOT_NAMED 1920-09-23 18:00:00 TS 35.9000 -79.9000 30 hurdat_atl main 0 0 O_____________ hurdat_atl AL031920 35.9000 -79.9000 TD 30 -1 14 324
1920263N30283 1920 40 NA NA NOT_NAMED 1920-09-23 21:00:00 TS 36.4506 -80.4307 main 0 0 P_____________ AL031920 36.4506 -80.4307 TD 27 -1 14 321
1920263N30283 1920 40 NA NA NOT_NAMED 1920-09-24 00:00:00 TS 37.0000 -81.0000 25 hurdat_atl main 0 O_____________ hurdat_atl AL031920 37.0000 -81.0000 TD 25 -1 14 320

IBTrACS Databaseについて

本データベースは、米国NOAAが公開する1842年以降の世界の熱帯低気圧のベストトラックデータアーカイブInternational Best Track Archive for Climate Stewardship (IBTrACS)を、ウェブで閲覧しやすい形式に変換したものです。

最終更新日:2021-10-27